createdAt,value
2018-08-06T00:00:25.587Z,19.73
2018-08-06T00:02:56.592Z,19.72
2018-08-06T00:05:27.609Z,19.67
2018-08-06T00:07:58.544Z,19.68
2018-08-06T00:10:29.944Z,19.39
2018-08-06T00:13:00.833Z,19.10
2018-08-06T00:15:31.653Z,19.07
2018-08-06T00:18:02.629Z,19.11
2018-08-06T00:20:33.618Z,19.21
2018-08-06T00:23:04.602Z,19.30
2018-08-06T00:25:35.600Z,19.53
2018-08-06T00:28:06.553Z,19.39
2018-08-06T00:30:37.687Z,19.15
2018-08-06T00:33:08.597Z,19.09
2018-08-06T00:35:39.612Z,19.07
2018-08-06T00:38:10.561Z,19.09
2018-08-06T00:40:41.672Z,19.08
2018-08-06T00:43:12.534Z,19.07
2018-08-06T00:45:43.684Z,19.16
2018-08-06T00:48:14.609Z,19.04
2018-08-06T00:50:45.635Z,19.18
2018-08-06T00:53:16.557Z,19.21
2018-08-06T00:55:47.630Z,19.33
2018-08-06T00:58:18.558Z,19.22
2018-08-06T01:00:49.663Z,18.56
2018-08-06T01:03:20.589Z,18.68
2018-08-06T01:05:51.617Z,18.91
2018-08-06T01:08:22.609Z,18.83
2018-08-06T01:10:53.609Z,18.85
2018-08-06T01:13:24.680Z,18.58
2018-08-06T01:15:55.616Z,18.63
2018-08-06T01:18:26.585Z,18.66
2018-08-06T01:20:57.621Z,18.78
2018-08-06T01:23:28.545Z,18.63
2018-08-06T01:25:59.654Z,18.81
2018-08-06T01:28:30.730Z,18.98
2018-08-06T01:31:01.615Z,18.87
2018-08-06T01:33:32.625Z,18.76
2018-08-06T01:36:03.657Z,18.67
2018-08-06T01:38:34.568Z,18.63
2018-08-06T01:41:05.678Z,18.59
2018-08-06T01:43:36.624Z,18.75
2018-08-06T01:46:07.632Z,18.77
2018-08-06T01:48:38.557Z,18.76
2018-08-06T01:51:09.697Z,18.82
2018-08-06T01:53:40.553Z,18.60
2018-08-06T01:56:11.684Z,18.73
2018-08-06T01:58:42.540Z,18.75
2018-08-06T02:01:13.712Z,18.71
2018-08-06T02:03:44.554Z,18.51
2018-08-06T02:06:15.699Z,18.61
2018-08-06T02:08:46.566Z,18.71
2018-08-06T02:11:17.635Z,18.75
2018-08-06T02:13:48.605Z,18.53
2018-08-06T02:16:19.618Z,18.39
2018-08-06T02:18:50.551Z,18.49
2018-08-06T02:21:21.620Z,18.73
2018-08-06T02:23:52.548Z,18.58
2018-08-06T02:26:23.600Z,18.73
2018-08-06T02:28:54.547Z,18.58
2018-08-06T02:31:25.702Z,18.57
2018-08-06T02:36:48.297Z,18.74
2018-08-06T02:39:19.318Z,18.74
2018-08-06T02:41:50.309Z,18.60
2018-08-06T02:44:21.315Z,18.38
2018-08-06T02:46:52.314Z,18.41
2018-08-06T02:49:23.315Z,18.22
2018-08-06T02:51:54.311Z,18.15
2018-08-06T02:54:25.290Z,18.43
2018-08-06T02:56:56.312Z,18.32
2018-08-06T02:59:27.328Z,18.30
2018-08-06T03:01:59.310Z,18.32
2018-08-06T03:04:30.508Z,18.32
2018-08-06T03:07:01.625Z,18.10
2018-08-06T03:09:32.661Z,17.80
2018-08-06T03:12:04.628Z,17.89
2018-08-06T03:14:35.542Z,17.66
2018-08-06T03:17:06.859Z,17.86
2018-08-06T03:19:37.701Z,17.73
2018-08-06T03:22:08.608Z,17.83
2018-08-06T03:24:39.553Z,17.80
2018-08-06T03:27:10.654Z,17.65
2018-08-06T03:29:41.599Z,17.64
2018-08-06T03:32:12.724Z,17.72
2018-08-06T03:34:43.566Z,17.64
2018-08-06T03:37:14.685Z,17.88
2018-08-06T03:39:45.571Z,18.02
2018-08-06T03:42:16.613Z,17.88
2018-08-06T03:44:47.620Z,17.93
2018-08-06T03:47:18.661Z,17.99
2018-08-06T03:49:49.597Z,18.06
2018-08-06T03:52:20.608Z,18.06
2018-08-06T03:54:51.554Z,18.09
2018-08-06T03:57:22.612Z,18.06
2018-08-06T03:59:53.669Z,18.50
2018-08-06T04:02:24.682Z,18.66
2018-08-06T04:04:55.581Z,18.66
2018-08-06T04:07:26.647Z,18.53
2018-08-06T04:09:57.617Z,18.57
2018-08-06T04:12:28.685Z,18.80
